sensor_id;sensor_type;location;lat;lon;timestamp;P1;P2;P0
72031;PMS5003;49185;42.320;23.198;2023-03-22T00:02:08;19.33;18.33;9.00
72031;PMS5003;49185;42.320;23.198;2023-03-22T00:04:33;18.33;17.33;8.33
72031;PMS5003;49185;42.320;23.198;2023-03-22T00:06:59;17.33;17.33;8.33
72031;PMS5003;49185;42.320;23.198;2023-03-22T00:09:24;13.00;13.00;6.00
72031;PMS5003;49185;42.320;23.198;2023-03-22T00:11:50;12.00;11.00;6.00
72031;PMS5003;49185;42.320;23.198;2023-03-22T00:14:16;13.00;13.00;6.00
72031;PMS5003;49185;42.320;23.198;2023-03-22T00:16:42;13.00;11.25;6.00
72031;PMS5003;49185;42.320;23.198;2023-03-22T00:19:07;9.67;9.00;5.00
72031;PMS5003;49185;42.320;23.198;2023-03-22T00:21:33;9.67;9.00;4.33
72031;PMS5003;49185;42.320;23.198;2023-03-22T00:23:58;6.00;5.00;3.00
72031;PMS5003;49185;42.320;23.198;2023-03-22T00:26:23;7.33;5.33;3.00
72031;PMS5003;49185;42.320;23.198;2023-03-22T00:28:49;7.00;7.00;3.00
72031;PMS5003;49185;42.320;23.198;2023-03-22T00:31:14;8.00;8.00;2.67
72031;PMS5003;49185;42.320;23.198;2023-03-22T00:33:40;8.00;8.00;4.00
72031;PMS5003;49185;42.320;23.198;2023-03-22T00:36:06;7.00;5.33;2.33
72031;PMS5003;49185;42.320;23.198;2023-03-22T00:38:34;4.00;4.00;2.00
72031;PMS5003;49185;42.320;23.198;2023-03-22T00:43:41;7.00;6.75;1.75
72031;PMS5003;49185;42.320;23.198;2023-03-22T00:46:07;5.25;5.00;2.00
72031;PMS5003;49185;42.320;23.198;2023-03-22T00:48:33;7.00;7.00;3.00
72031;PMS5003;49185;42.320;23.198;2023-03-22T00:50:59;7.33;6.00;4.00
72031;PMS5003;49185;42.320;23.198;2023-03-22T00:53:24;7.00;7.00;3.00
72031;PMS5003;49185;42.320;23.198;2023-03-22T00:55:49;7.67;7.00;3.00
72031;PMS5003;49185;42.320;23.198;2023-03-22T00:58:15;6.00;6.00;3.00
72031;PMS5003;49185;42.320;23.198;2023-03-22T01:00:40;4.00;4.00;2.00
72031;PMS5003;49185;42.320;23.198;2023-03-22T01:03:06;7.33;7.00;2.00
72031;PMS5003;49185;42.320;23.198;2023-03-22T01:05:31;7.00;7.00;3.00
72031;PMS5003;49185;42.320;23.198;2023-03-22T01:08:01;5.50;5.50;3.00
72031;PMS5003;49185;42.320;23.198;2023-03-22T01:10:28;6.00;6.00;2.00
72031;PMS5003;49185;42.320;23.198;2023-03-22T01:12:55;5.75;5.75;2.00
72031;PMS5003;49185;42.320;23.198;2023-03-22T01:15:20;7.33;7.33;3.00
72031;PMS5003;49185;42.320;23.198;2023-03-22T01:17:45;6.00;6.00;3.00
72031;PMS5003;49185;42.320;23.198;2023-03-22T01:20:11;7.00;7.00;4.00
72031;PMS5003;49185;42.320;23.198;2023-03-22T01:22:36;5.00;5.00;3.00
72031;PMS5003;49185;42.320;23.198;2023-03-22T01:25:02;3.33;3.33;2.00
72031;PMS5003;49185;42.320;23.198;2023-03-22T01:27:28;5.25;4.75;1.75
72031;PMS5003;49185;42.320;23.198;2023-03-22T01:29:53;7.00;7.00;3.00
72031;PMS5003;49185;42.320;23.198;2023-03-22T01:32:18;9.00;8.00;3.67
72031;PMS5003;49185;42.320;23.198;2023-03-22T01:34:44;7.33;7.00;4.00
72031;PMS5003;49185;42.320;23.198;2023-03-22T01:37:10;7.50;7.50;4.00
72031;PMS5003;49185;42.320;23.198;2023-03-22T01:39:35;6.00;6.00;4.00
72031;PMS5003;49185;42.320;23.198;2023-03-22T01:42:01;6.00;6.00;2.00
72031;PMS5003;49185;42.320;23.198;2023-03-22T01:44:28;13.75;13.75;9.00
72031;PMS5003;49185;42.320;23.198;2023-03-22T01:46:55;11.50;11.50;5.75
72031;PMS5003;49185;42.320;23.198;2023-03-22T01:49:24;7.33;7.33;3.67
72031;PMS5003;49185;42.320;23.198;2023-03-22T01:51:54;8.00;8.00;3.25
72031;PMS5003;49185;42.320;23.198;2023-03-22T01:54:27;15.50;15.00;10.00
72031;PMS5003;49185;42.320;23.198;2023-03-22T01:56:59;16.75;15.25;7.50
72031;PMS5003;49185;42.320;23.198;2023-03-22T01:59:24;10.33;10.33;5.00
72031;PMS5003;49185;42.320;23.198;2023-03-22T02:01:51;6.00;5.00;2.00
72031;PMS5003;49185;42.320;23.198;2023-03-22T02:04:18;4.00;3.00;1.00
72031;PMS5003;49185;42.320;23.198;2023-03-22T02:06:45;4.00;4.00;1.25
72031;PMS5003;49185;42.320;23.198;2023-03-22T02:09:12;4.50;4.50;1.00
72031;PMS5003;49185;42.320;23.198;2023-03-22T02:11:40;3.00;3.00;1.00
72031;PMS5003;49185;42.320;23.198;2023-03-22T02:44:39;4.00;4.00;0.00
72031;PMS5003;49185;42.320;23.198;2023-03-22T02:47:20;3.00;3.00;0.00
72031;PMS5003;49185;42.320;23.198;2023-03-22T02:52:41;2.00;2.00;0.00
72031;PMS5003;49185;42.320;23.198;2023-03-22T02:58:10;2.00;0.00;0.00
72031;PMS5003;49185;42.320;23.198;2023-03-22T03:00:58;3.00;2.00;0.00
72031;PMS5003;49185;42.320;23.198;2023-03-22T03:03:27;2.00;1.00;0.00
72031;PMS5003;49185;42.320;23.198;2023-03-22T03:05:58;3.75;3.50;0.00
72031;PMS5003;49185;42.320;23.198;2023-03-22T03:08:28;5.00;4.75;0.00
72031;PMS5003;49185;42.320;23.198;2023-03-22T03:10:55;2.00;2.00;0.00
72031;PMS5003;49185;42.320;23.198;2023-03-22T03:13:20;1.00;1.00;0.00
72031;PMS5003;49185;42.320;23.198;2023-03-22T03:15:47;0.00;0.00;0.00
72031;PMS5003;49185;42.320;23.198;2023-03-22T03:26:17;4.25;3.75;0.00
72031;PMS5003;49185;42.320;23.198;2023-03-22T03:31:26;3.00;3.00;0.00
72031;PMS5003;49185;42.320;23.198;2023-03-22T03:33:56;2.00;2.00;0.00
72031;PMS5003;49185;42.320;23.198;2023-03-22T03:36:29;5.75;5.25;0.25
72031;PMS5003;49185;42.320;23.198;2023-03-22T03:38:59;6.00;6.00;1.50
72031;PMS5003;49185;42.320;23.198;2023-03-22T03:41:27;4.00;4.00;1.00
72031;PMS5003;49185;42.320;23.198;2023-03-22T03:43:54;3.25;3.25;1.00
72031;PMS5003;49185;42.320;23.198;2023-03-22T03:46:21;3.00;3.00;0.00
72031;PMS5003;49185;42.320;23.198;2023-03-22T03:48:47;3.00;3.00;0.00
72031;PMS5003;49185;42.320;23.198;2023-03-22T03:51:14;4.00;3.25;0.00
72031;PMS5003;49185;42.320;23.198;2023-03-22T03:53:40;6.50;6.25;0.50
72031;PMS5003;49185;42.320;23.198;2023-03-22T03:56:06;7.00;6.00;4.00
72031;PMS5003;49185;42.320;23.198;2023-03-22T03:58:32;4.00;4.00;3.00
72031;PMS5003;49185;42.320;23.198;2023-03-22T04:00:57;3.00;3.00;0.00
72031;PMS5003;49185;42.320;23.198;2023-03-22T04:03:23;1.00;1.00;0.00
72031;PMS5003;49185;42.320;23.198;2023-03-22T04:05:48;2.00;2.00;0.00
72031;PMS5003;49185;42.320;23.198;2023-03-22T04:08:14;4.00;4.00;0.00
72031;PMS5003;49185;42.320;23.198;2023-03-22T04:10:39;8.00;7.00;1.00
72031;PMS5003;49185;42.320;23.198;2023-03-22T04:13:04;8.67;8.33;3.33
72031;PMS5003;49185;42.320;23.198;2023-03-22T04:15:30;8.00;8.00;3.00
72031;PMS5003;49185;42.320;23.198;2023-03-22T04:17:55;7.00;7.00;3.00
72031;PMS5003;49185;42.320;23.198;2023-03-22T04:20:21;5.00;5.00;2.00
72031;PMS5003;49185;42.320;23.198;2023-03-22T04:22:47;5.00;4.33;2.00
72031;PMS5003;49185;42.320;23.198;2023-03-22T04:25:13;4.00;4.00;2.00
72031;PMS5003;49185;42.320;23.198;2023-03-22T04:27:40;5.00;4.75;2.00
72031;PMS5003;49185;42.320;23.198;2023-03-22T04:30:07;7.00;7.00;3.00
72031;PMS5003;49185;42.320;23.198;2023-03-22T04:32:34;8.00;7.00;3.00
72031;PMS5003;49185;42.320;23.198;2023-03-22T04:35:00;7.33;7.00;2.00
72031;PMS5003;49185;42.320;23.198;2023-03-22T04:37:25;8.00;8.00;3.00
72031;PMS5003;49185;42.320;23.198;2023-03-22T04:39:50;11.33;9.67;5.67
72031;PMS5003;49185;42.320;23.198;2023-03-22T04:42:16;14.67;12.00;6.33
72031;PMS5003;49185;42.320;23.198;2023-03-22T04:44:41;13.00;10.00;4.00
72031;PMS5003;49185;42.320;23.198;2023-03-22T04:47:07;7.00;6.00;2.00
72031;PMS5003;49185;42.320;23.198;2023-03-22T04:49:32;5.00;4.00;1.00
72031;PMS5003;49185;42.320;23.198;2023-03-22T04:51:58;4.00;4.00;0.00
72031;PMS5003;49185;42.320;23.198;2023-03-22T04:54:23;7.33;7.33;1.00
72031;PMS5003;49185;42.320;23.198;2023-03-22T04:56:49;7.00;7.00;2.33
72031;PMS5003;49185;42.320;23.198;2023-03-22T04:59:14;5.00;5.00;2.00
72031;PMS5003;49185;42.320;23.198;2023-03-22T05:01:40;4.00;4.00;1.00
72031;PMS5003;49185;42.320;23.198;2023-03-22T05:04:06;4.33;3.00;0.00
72031;PMS5003;49185;42.320;23.198;2023-03-22T05:06:32;3.00;2.00;0.00
72031;PMS5003;49185;42.320;23.198;2023-03-22T05:08:58;4.00;3.33;0.00
72031;PMS5003;49185;42.320;23.198;2023-03-22T05:11:23;7.25;6.00;2.50
72031;PMS5003;49185;42.320;23.198;2023-03-22T05:13:49;12.00;10.00;5.00
72031;PMS5003;49185;42.320;23.198;2023-03-22T05:16:14;11.67;10.33;5.00
72031;PMS5003;49185;42.320;23.198;2023-03-22T05:18:40;12.33;10.00;5.00
72031;PMS5003;49185;42.320;23.198;2023-03-22T05:21:05;14.00;13.33;6.67
72031;PMS5003;49185;42.320;23.198;2023-03-22T05:23:35;13.00;13.00;6.00
72031;PMS5003;49185;42.320;23.198;2023-03-22T05:26:00;13.67;13.67;7.33
72031;PMS5003;49185;42.320;23.198;2023-03-22T05:28:26;15.33;14.00;7.00
72031;PMS5003;49185;42.320;23.198;2023-03-22T05:30:51;16.00;15.33;7.00
72031;PMS5003;49185;42.320;23.198;2023-03-22T05:33:17;18.75;15.00;8.00
72031;PMS5003;49185;42.320;23.198;2023-03-22T05:35:43;16.33;14.00;5.00
72031;PMS5003;49185;42.320;23.198;2023-03-22T05:38:08;14.00;10.00;4.00
72031;PMS5003;49185;42.320;23.198;2023-03-22T05:40:34;12.00;10.00;3.00
72031;PMS5003;49185;42.320;23.198;2023-03-22T05:42:59;8.00;7.00;3.00
72031;PMS5003;49185;42.320;23.198;2023-03-22T05:45:25;8.00;8.00;3.33
72031;PMS5003;49185;42.320;23.198;2023-03-22T05:47:51;17.00;16.50;9.50
72031;PMS5003;49185;42.320;23.198;2023-03-22T05:50:18;23.25;22.00;13.00
72031;PMS5003;49185;42.320;23.198;2023-03-22T05:52:45;33.00;29.50;18.25
72031;PMS5003;49185;42.320;23.198;2023-03-22T05:55:12;44.00;36.75;23.00
72031;PMS5003;49185;42.320;23.198;2023-03-22T05:57:39;49.75;41.00;26.00
72031;PMS5003;49185;42.320;23.198;2023-03-22T06:00:06;49.25;40.00;26.50
72031;PMS5003;49185;42.320;23.198;2023-03-22T06:02:33;42.75;35.00;23.00
72031;PMS5003;49185;42.320;23.198;2023-03-22T06:04:59;33.00;29.33;19.33
72031;PMS5003;49185;42.320;23.198;2023-03-22T06:07:24;37.33;32.00;19.00
72031;PMS5003;49185;42.320;23.198;2023-03-22T06:09:50;31.00;28.00;19.00
72031;PMS5003;49185;42.320;23.198;2023-03-22T06:12:15;38.00;30.00;19.00
72031;PMS5003;49185;42.320;23.198;2023-03-22T06:14:42;43.00;34.50;21.00
72031;PMS5003;49185;42.320;23.198;2023-03-22T06:17:07;32.33;29.00;18.67
72031;PMS5003;49185;42.320;23.198;2023-03-22T06:19:33;24.75;23.25;15.00
72031;PMS5003;49185;42.320;23.198;2023-03-22T06:21:58;23.00;21.00;13.00
72031;PMS5003;49185;42.320;23.198;2023-03-22T06:24:24;22.67;20.33;12.00
72031;PMS5003;49185;42.320;23.198;2023-03-22T06:26:49;22.00;19.00;9.33
72031;PMS5003;49185;42.320;23.198;2023-03-22T06:29:14;18.33;16.00;6.00
72031;PMS5003;49185;42.320;23.198;2023-03-22T06:31:40;19.33;16.00;7.00
72031;PMS5003;49185;42.320;23.198;2023-03-22T06:34:05;14.67;10.67;5.00
72031;PMS5003;49185;42.320;23.198;2023-03-22T06:36:31;7.00;6.00;2.00
72031;PMS5003;49185;42.320;23.198;2023-03-22T06:38:56;2.00;2.00;1.00
72031;PMS5003;49185;42.320;23.198;2023-03-22T06:41:22;3.00;3.00;0.00
72031;PMS5003;49185;42.320;23.198;2023-03-22T06:43:48;4.00;3.00;0.00
72031;PMS5003;49185;42.320;23.198;2023-03-22T06:46:13;4.00;3.00;0.00
72031;PMS5003;49185;42.320;23.198;2023-03-22T06:48:39;4.00;3.00;0.00
72031;PMS5003;49185;42.320;23.198;2023-03-22T06:51:04;4.33;4.00;1.00
72031;PMS5003;49185;42.320;23.198;2023-03-22T06:53:30;6.00;6.00;2.00
72031;PMS5003;49185;42.320;23.198;2023-03-22T06:55:55;6.33;6.33;1.00
72031;PMS5003;49185;42.320;23.198;2023-03-22T06:58:21;5.33;5.33;2.00
72031;PMS5003;49185;42.320;23.198;2023-03-22T07:00:47;4.00;3.50;2.00
72031;PMS5003;49185;42.320;23.198;2023-03-22T07:03:12;5.00;5.00;1.00
72031;PMS5003;49185;42.320;23.198;2023-03-22T07:05:38;4.00;4.00;1.00
72031;PMS5003;49185;42.320;23.198;2023-03-22T07:08:03;4.00;4.00;0.00
72031;PMS5003;49185;42.320;23.198;2023-03-22T07:10:29;4.00;3.00;0.00
72031;PMS5003;49185;42.320;23.198;2023-03-22T07:12:54;5.00;5.00;0.00
72031;PMS5003;49185;42.320;23.198;2023-03-22T07:15:19;5.33;4.00;0.00
72031;PMS5003;49185;42.320;23.198;2023-03-22T07:17:45;4.00;4.00;1.00
72031;PMS5003;49185;42.320;23.198;2023-03-22T07:20:10;4.00;3.00;1.00
72031;PMS5003;49185;42.320;23.198;2023-03-22T07:22:36;2.00;2.00;1.00
72031;PMS5003;49185;42.320;23.198;2023-03-22T07:25:01;3.00;2.00;0.00
72031;PMS5003;49185;42.320;23.198;2023-03-22T07:27:27;2.00;2.00;0.00
72031;PMS5003;49185;42.320;23.198;2023-03-22T07:29:52;3.67;3.67;0.00
72031;PMS5003;49185;42.320;23.198;2023-03-22T07:32:18;2.00;2.00;0.00
72031;PMS5003;49185;42.320;23.198;2023-03-22T07:34:43;7.00;6.67;1.67
72031;PMS5003;49185;42.320;23.198;2023-03-22T07:37:09;8.00;7.00;3.00
72031;PMS5003;49185;42.320;23.198;2023-03-22T07:39:34;9.33;8.33;3.33
72031;PMS5003;49185;42.320;23.198;2023-03-22T07:42:00;7.00;6.00;2.00
72031;PMS5003;49185;42.320;23.198;2023-03-22T07:44:25;9.33;9.33;5.33
72031;PMS5003;49185;42.320;23.198;2023-03-22T07:46:51;14.00;13.00;6.00
72031;PMS5003;49185;42.320;23.198;2023-03-22T07:49:16;12.00;10.00;4.67
72031;PMS5003;49185;42.320;23.198;2023-03-22T07:51:43;9.25;8.00;2.00
72031;PMS5003;49185;42.320;23.198;2023-03-22T07:54:09;9.00;8.00;4.00
72031;PMS5003;49185;42.320;23.198;2023-03-22T07:56:34;9.00;9.00;5.00
72031;PMS5003;49185;42.320;23.198;2023-03-22T07:59:00;12.00;12.00;8.00
72031;PMS5003;49185;42.320;23.198;2023-03-22T08:01:26;15.00;13.00;7.00
72031;PMS5003;49185;42.320;23.198;2023-03-22T08:03:51;19.67;18.67;11.33
72031;PMS5003;49185;42.320;23.198;2023-03-22T08:06:17;20.00;20.00;14.00
72031;PMS5003;49185;42.320;23.198;2023-03-22T08:08:43;23.75;22.50;14.25
72031;PMS5003;49185;42.320;23.198;2023-03-22T08:11:09;24.75;23.50;15.00
72031;PMS5003;49185;42.320;23.198;2023-03-22T08:13:35;17.00;17.00;7.75
72031;PMS5003;49185;42.320;23.198;2023-03-22T08:16:00;13.00;13.00;5.00
72031;PMS5003;49185;42.320;23.198;2023-03-22T08:18:26;8.00;8.00;3.00
72031;PMS5003;49185;42.320;23.198;2023-03-22T08:20:52;14.00;13.67;7.00
72031;PMS5003;49185;42.320;23.198;2023-03-22T08:23:18;18.00;17.00;8.00
72031;PMS5003;49185;42.320;23.198;2023-03-22T08:25:44;16.00;15.00;6.00
72031;PMS5003;49185;42.320;23.198;2023-03-22T08:28:09;13.00;12.00;5.00
72031;PMS5003;49185;42.320;23.198;2023-03-22T08:30:35;7.00;5.00;2.33
72031;PMS5003;49185;42.320;23.198;2023-03-22T08:33:00;2.00;2.00;1.00
72031;PMS5003;49185;42.320;23.198;2023-03-22T08:35:26;5.00;5.00;1.00
72031;PMS5003;49185;42.320;23.198;2023-03-22T08:37:54;8.00;8.00;3.67
72031;PMS5003;49185;42.320;23.198;2023-03-22T08:40:20;8.00;8.00;3.00
72031;PMS5003;49185;42.320;23.198;2023-03-22T08:42:46;7.00;7.00;2.50
72031;PMS5003;49185;42.320;23.198;2023-03-22T08:45:11;5.00;5.00;2.00
72031;PMS5003;49185;42.320;23.198;2023-03-22T08:47:36;6.33;6.33;3.00
72031;PMS5003;49185;42.320;23.198;2023-03-22T08:50:02;8.00;8.00;4.00
72031;PMS5003;49185;42.320;23.198;2023-03-22T08:52:28;4.00;4.00;2.00
72031;PMS5003;49185;42.320;23.198;2023-03-22T08:54:53;7.00;5.00;3.00
72031;PMS5003;49185;42.320;23.198;2023-03-22T08:57:19;5.00;5.00;3.00
72031;PMS5003;49185;42.320;23.198;2023-03-22T08:59:44;7.00;6.00;2.00
72031;PMS5003;49185;42.320;23.198;2023-03-22T09:02:09;4.33;4.33;1.00
72031;PMS5003;49185;42.320;23.198;2023-03-22T09:04:35;8.00;8.00;3.00
72031;PMS5003;49185;42.320;23.198;2023-03-22T09:07:00;9.00;9.00;4.00
72031;PMS5003;49185;42.320;23.198;2023-03-22T09:09:26;8.00;7.00;4.00
72031;PMS5003;49185;42.320;23.198;2023-03-22T09:11:51;5.00;4.00;3.00
72031;PMS5003;49185;42.320;23.198;2023-03-22T09:14:16;4.67;4.67;3.00
72031;PMS5003;49185;42.320;23.198;2023-03-22T09:16:42;8.67;8.33;4.33
72031;PMS5003;49185;42.320;23.198;2023-03-22T09:19:07;10.33;9.00;5.00
72031;PMS5003;49185;42.320;23.198;2023-03-22T09:21:33;11.00;10.00;6.00
72031;PMS5003;49185;42.320;23.198;2023-03-22T09:23:59;13.00;9.00;5.00
72031;PMS5003;49185;42.320;23.198;2023-03-22T09:26:24;9.00;8.67;2.00
72031;PMS5003;49185;42.320;23.198;2023-03-22T09:28:49;7.00;6.00;3.00
72031;PMS5003;49185;42.320;23.198;2023-03-22T09:31:15;7.00;6.00;2.00
72031;PMS5003;49185;42.320;23.198;2023-03-22T09:33:41;9.67;9.33;4.00
72031;PMS5003;49185;42.320;23.198;2023-03-22T09:36:07;11.25;10.25;4.75
72031;PMS5003;49185;42.320;23.198;2023-03-22T09:38:34;14.75;13.50;7.00
72031;PMS5003;49185;42.320;23.198;2023-03-22T09:41:01;13.33;13.00;4.33
72031;PMS5003;49185;42.320;23.198;2023-03-22T09:43:37;11.50;9.50;4.00
72031;PMS5003;49185;42.320;23.198;2023-03-22T09:46:09;11.25;10.00;5.00
72031;PMS5003;49185;42.320;23.198;2023-03-22T09:48:40;8.00;8.00;3.00
72031;PMS5003;49185;42.320;23.198;2023-03-22T09:54:10;7.75;7.75;2.75
72031;PMS5003;49185;42.320;23.198;2023-03-22T09:56:38;6.75;5.00;2.00
72031;PMS5003;49185;42.320;23.198;2023-03-22T09:59:10;7.00;6.00;1.00
72031;PMS5003;49185;42.320;23.198;2023-03-22T10:10:12;6.75;6.75;2.25
72031;PMS5003;49185;42.320;23.198;2023-03-22T10:12:57;12.50;10.25;5.00
72031;PMS5003;49185;42.320;23.198;2023-03-22T10:15:31;18.25;15.50;6.00
72031;PMS5003;49185;42.320;23.198;2023-03-22T10:18:29;19.00;17.00;6.00
72031;PMS5003;49185;42.320;23.198;2023-03-22T10:21:03;17.00;15.50;6.00
72031;PMS5003;49185;42.320;23.198;2023-03-22T10:23:38;28.50;26.50;14.75
72031;PMS5003;49185;42.320;23.198;2023-03-22T10:26:23;25.00;23.00;14.75
72031;PMS5003;49185;42.320;23.198;2023-03-22T10:28:59;16.50;16.50;8.25
72031;PMS5003;49185;42.320;23.198;2023-03-22T10:31:26;17.75;17.50;10.00
72031;PMS5003;49185;42.320;23.198;2023-03-22T10:33:54;19.00;18.00;8.75
72031;PMS5003;49185;42.320;23.198;2023-03-22T10:36:25;21.50;21.50;9.00
72031;PMS5003;49185;42.320;23.198;2023-03-22T10:38:55;20.25;19.25;8.25
72031;PMS5003;49185;42.320;23.198;2023-03-22T10:41:37;16.75;15.00;5.25
72031;PMS5003;49185;42.320;23.198;2023-03-22T10:44:04;19.75;18.50;8.75
72031;PMS5003;49185;42.320;23.198;2023-03-22T10:46:32;20.00;18.00;8.00
72031;PMS5003;49185;42.320;23.198;2023-03-22T10:49:02;18.25;18.00;7.00
72031;PMS5003;49185;42.320;23.198;2023-03-22T10:51:37;17.00;17.00;6.75
72031;PMS5003;49185;42.320;23.198;2023-03-22T10:54:11;17.00;16.00;5.00
72031;PMS5003;49185;42.320;23.198;2023-03-22T10:56:38;9.00;8.00;3.00
72031;PMS5003;49185;42.320;23.198;2023-03-22T10:59:03;9.00;7.00;3.00
72031;PMS5003;49185;42.320;23.198;2023-03-22T11:01:30;15.25;14.50;7.75
72031;PMS5003;49185;42.320;23.198;2023-03-22T11:03:59;18.00;16.00;6.25
72031;PMS5003;49185;42.320;23.198;2023-03-22T11:06:39;13.50;12.00;5.00
72031;PMS5003;49185;42.320;23.198;2023-03-22T11:09:20;5.25;5.00;2.00
72031;PMS5003;49185;42.320;23.198;2023-03-22T11:11:58;7.00;7.00;3.00
72031;PMS5003;49185;42.320;23.198;2023-03-22T11:17:08;11.00;9.25;4.00
72031;PMS5003;49185;42.320;23.198;2023-03-22T11:19:39;8.75;6.25;4.00
72031;PMS5003;49185;42.320;23.198;2023-03-22T11:22:23;4.75;4.75;2.00
72031;PMS5003;49185;42.320;23.198;2023-03-22T11:24:56;10.00;6.50;4.50
72031;PMS5003;49185;42.320;23.198;2023-03-22T11:27:23;11.00;8.25;4.00
72031;PMS5003;49185;42.320;23.198;2023-03-22T11:29:58;11.75;10.00;5.00
72031;PMS5003;49185;42.320;23.198;2023-03-22T11:32:35;12.00;9.00;5.00
72031;PMS5003;49185;42.320;23.198;2023-03-22T11:35:14;6.25;5.25;4.00
72031;PMS5003;49185;42.320;23.198;2023-03-22T11:37:50;9.75;9.50;5.50
72031;PMS5003;49185;42.320;23.198;2023-03-22T11:42:48;11.00;9.00;5.00
72031;PMS5003;49185;42.320;23.198;2023-03-22T11:45:30;10.75;8.75;4.00
72031;PMS5003;49185;42.320;23.198;2023-03-22T11:48:11;7.00;7.00;4.00
72031;PMS5003;49185;42.320;23.198;2023-03-22T11:50:42;7.00;7.00;4.00
72031;PMS5003;49185;42.320;23.198;2023-03-22T11:53:14;6.25;6.25;3.00
72031;PMS5003;49185;42.320;23.198;2023-03-22T11:55:43;5.00;5.00;2.00
72031;PMS5003;49185;42.320;23.198;2023-03-22T11:58:19;3.00;3.00;2.00
72031;PMS5003;49185;42.320;23.198;2023-03-22T12:00:55;9.50;9.25;3.75
72031;PMS5003;49185;42.320;23.198;2023-03-22T12:03:27;7.00;6.00;3.00
72031;PMS5003;49185;42.320;23.198;2023-03-22T12:05:57;5.00;5.00;2.00
72031;PMS5003;49185;42.320;23.198;2023-03-22T12:11:09;6.00;5.00;3.00
72031;PMS5003;49185;42.320;23.198;2023-03-22T12:16:10;7.00;7.00;4.00
72031;PMS5003;49185;42.320;23.198;2023-03-22T12:21:08;6.75;6.75;2.25
72031;PMS5003;49185;42.320;23.198;2023-03-22T12:23:34;11.25;11.00;6.00
72031;PMS5003;49185;42.320;23.198;2023-03-22T12:26:09;13.00;11.67;6.00
72031;PMS5003;49185;42.320;23.198;2023-03-22T12:31:24;12.50;10.50;3.00
72031;PMS5003;49185;42.320;23.198;2023-03-22T12:33:55;14.50;12.25;6.25
72031;PMS5003;49185;42.320;23.198;2023-03-22T12:36:28;25.50;22.75;12.25
72031;PMS5003;49185;42.320;23.198;2023-03-22T12:38:57;25.50;23.00;11.00
72031;PMS5003;49185;42.320;23.198;2023-03-22T12:41:37;23.00;22.00;8.00
72031;PMS5003;49185;42.320;23.198;2023-03-22T12:46:59;23.00;21.50;9.50
72031;PMS5003;49185;42.320;23.198;2023-03-22T12:50:05;16.50;16.00;6.00
72031;PMS5003;49185;42.320;23.198;2023-03-22T12:52:51;16.50;15.50;7.00
72031;PMS5003;49185;42.320;23.198;2023-03-22T12:55:28;17.00;16.00;6.25
72031;PMS5003;49185;42.320;23.198;2023-03-22T12:57:56;18.00;16.00;6.00
72031;PMS5003;49185;42.320;23.198;2023-03-22T13:00:33;17.00;16.00;6.00
72031;PMS5003;49185;42.320;23.198;2023-03-22T13:03:02;17.50;16.75;6.75
72031;PMS5003;49185;42.320;23.198;2023-03-22T13:05:33;18.75;17.00;6.00
72031;PMS5003;49185;42.320;23.198;2023-03-22T13:08:00;20.50;19.00;10.25
72031;PMS5003;49185;42.320;23.198;2023-03-22T13:10:37;22.00;22.00;11.00
72031;PMS5003;49185;42.320;23.198;2023-03-22T13:15:34;16.50;15.50;8.00
72031;PMS5003;49185;42.320;23.198;2023-03-22T13:18:03;17.00;17.00;9.00
72031;PMS5003;49185;42.320;23.198;2023-03-22T13:20:30;14.00;13.33;6.00
72031;PMS5003;49185;42.320;23.198;2023-03-22T13:22:58;10.25;9.25;4.00
72031;PMS5003;49185;42.320;23.198;2023-03-22T13:25:29;19.50;19.00;10.75
72031;PMS5003;49185;42.320;23.198;2023-03-22T13:27:59;20.00;20.00;7.00
72031;PMS5003;49185;42.320;23.198;2023-03-22T13:38:27;11.50;10.50;4.00
72031;PMS5003;49185;42.320;23.198;2023-03-22T13:51:17;13.75;12.25;4.00
72031;PMS5003;49185;42.320;23.198;2023-03-22T13:56:56;15.00;15.00;7.00
72031;PMS5003;49185;42.320;23.198;2023-03-22T14:04:46;11.50;9.75;4.00
72031;PMS5003;49185;42.320;23.198;2023-03-22T14:10:02;18.00;15.00;7.00
72031;PMS5003;49185;42.320;23.198;2023-03-22T14:15:31;19.75;16.75;7.75
72031;PMS5003;49185;42.320;23.198;2023-03-22T14:18:02;19.00;15.00;6.00
72031;PMS5003;49185;42.320;23.198;2023-03-22T14:20:37;15.00;11.50;3.00
72031;PMS5003;49185;42.320;23.198;2023-03-22T14:26:11;15.00;12.25;6.00
72031;PMS5003;49185;42.320;23.198;2023-03-22T14:28:42;11.25;11.25;4.00
72031;PMS5003;49185;42.320;23.198;2023-03-22T14:31:16;10.00;10.00;5.00
72031;PMS5003;49185;42.320;23.198;2023-03-22T14:33:49;7.25;7.25;4.50
72031;PMS5003;49185;42.320;23.198;2023-03-22T14:36:16;9.00;9.00;6.00
72031;PMS5003;49185;42.320;23.198;2023-03-22T14:38:44;6.00;6.00;2.25
72031;PMS5003;49185;42.320;23.198;2023-03-22T14:41:13;7.00;7.00;2.00
72031;PMS5003;49185;42.320;23.198;2023-03-22T14:43:47;7.00;7.00;2.00
72031;PMS5003;49185;42.320;23.198;2023-03-22T14:48:48;7.50;7.50;3.50
72031;PMS5003;49185;42.320;23.198;2023-03-22T14:51:20;8.00;7.00;4.00
72031;PMS5003;49185;42.320;23.198;2023-03-22T14:54:08;10.25;9.00;5.25
72031;PMS5003;49185;42.320;23.198;2023-03-22T14:56:40;13.00;12.00;6.00
72031;PMS5003;49185;42.320;23.198;2023-03-22T14:59:10;15.00;13.25;6.25
72031;PMS5003;49185;42.320;23.198;2023-03-22T15:01:40;17.00;14.00;6.00
72031;PMS5003;49185;42.320;23.198;2023-03-22T15:04:09;15.00;13.00;5.00
72031;PMS5003;49185;42.320;23.198;2023-03-22T15:06:43;26.50;24.00;13.00
72031;PMS5003;49185;42.320;23.198;2023-03-22T15:09:12;24.25;23.75;15.75
72031;PMS5003;49185;42.320;23.198;2023-03-22T15:11:39;13.75;11.75;4.00
72031;PMS5003;49185;42.320;23.198;2023-03-22T15:14:06;11.25;10.25;6.00
72031;PMS5003;49185;42.320;23.198;2023-03-22T15:16:33;23.25;21.50;12.25
72031;PMS5003;49185;42.320;23.198;2023-03-22T15:19:00;25.75;23.00;12.00
72031;PMS5003;49185;42.320;23.198;2023-03-22T15:21:27;28.50;27.50;14.75
72031;PMS5003;49185;42.320;23.198;2023-03-22T15:23:54;30.50;28.50;15.00
72031;PMS5003;49185;42.320;23.198;2023-03-22T15:26:34;30.75;28.50;15.50
72031;PMS5003;49185;42.320;23.198;2023-03-22T15:29:03;26.75;26.75;13.50
72031;PMS5003;49185;42.320;23.198;2023-03-22T15:31:31;21.00;20.00;9.50
72031;PMS5003;49185;42.320;23.198;2023-03-22T15:34:03;22.75;21.50;10.25
72031;PMS5003;49185;42.320;23.198;2023-03-22T15:36:31;27.50;26.25;13.25
72031;PMS5003;49185;42.320;23.198;2023-03-22T15:39:02;20.50;20.50;10.75
72031;PMS5003;49185;42.320;23.198;2023-03-22T15:41:34;13.25;13.00;4.00
72031;PMS5003;49185;42.320;23.198;2023-03-22T15:52:11;9.50;8.50;4.00
72031;PMS5003;49185;42.320;23.198;2023-03-22T15:55:26;10.25;8.00;5.00
72031;PMS5003;49185;42.320;23.198;2023-03-22T16:00:29;16.00;16.00;7.00
72031;PMS5003;49185;42.320;23.198;2023-03-22T16:02:58;15.50;12.75;4.25
72031;PMS5003;49185;42.320;23.198;2023-03-22T16:05:25;15.50;11.75;6.00
72031;PMS5003;49185;42.320;23.198;2023-03-22T16:07:52;10.50;8.00;5.00
72031;PMS5003;49185;42.320;23.198;2023-03-22T16:10:19;8.25;8.25;4.75
72031;PMS5003;49185;42.320;23.198;2023-03-22T16:12:46;11.25;9.50;5.00
72031;PMS5003;49185;42.320;23.198;2023-03-22T16:15:23;13.00;12.00;4.50
72031;PMS5003;49185;42.320;23.198;2023-03-22T16:17:53;14.00;12.25;6.00